createdAt,value
2023-03-30T00:02:09.383Z,3.40
2023-03-30T00:04:38.117Z,3.12
2023-03-30T00:05:47.877Z,3.15
2023-03-30T00:06:57.911Z,3.02
2023-03-30T00:08:07.649Z,2.72
2023-03-30T00:09:17.480Z,3.30
2023-03-30T00:11:42.865Z,3.03
2023-03-30T00:12:52.391Z,2.70
2023-03-30T00:14:01.431Z,3.40
2023-03-30T00:16:28.185Z,2.67
2023-03-30T00:18:52.662Z,3.25
2023-03-30T00:21:21.042Z,2.88
2023-03-30T00:23:48.304Z,2.60
2023-03-30T00:26:15.425Z,2.80
2023-03-30T00:28:39.033Z,2.67
2023-03-30T00:29:49.661Z,2.88
2023-03-30T00:31:00.221Z,2.70
2023-03-30T00:32:09.158Z,3.00
2023-03-30T00:34:35.167Z,3.23
2023-03-30T00:36:59.403Z,3.08
2023-03-30T00:38:08.628Z,3.30
2023-03-30T00:42:17.601Z,5.25
2023-03-30T00:43:28.491Z,5.02
2023-03-30T00:46:15.383Z,5.88
2023-03-30T00:48:41.468Z,6.15
2023-03-30T00:49:51.348Z,6.85
2023-03-30T00:51:11.705Z,5.50
2023-03-30T00:53:43.641Z,9.58
2023-03-30T00:54:56.369Z,10.75
2023-03-30T00:56:08.696Z,10.37
2023-03-30T00:58:40.061Z,11.07
2023-03-30T00:59:52.134Z,10.60
2023-03-30T01:01:05.836Z,11.08
2023-03-30T01:02:17.065Z,10.20
2023-03-30T01:06:02.200Z,9.80
2023-03-30T01:07:12.955Z,10.33
2023-03-30T01:10:48.211Z,9.03
2023-03-30T01:13:15.511Z,10.52
2023-03-30T01:15:43.731Z,11.55
2023-03-30T01:18:33.014Z,11.73
2023-03-30T01:22:50.245Z,10.16
2023-03-30T01:24:23.034Z,10.88
2023-03-30T01:28:47.113Z,8.32
2023-03-30T01:31:50.852Z,6.05
2023-03-30T01:34:48.889Z,4.30
2023-03-30T01:37:59.151Z,3.63
2023-03-30T01:39:11.820Z,3.35
2023-03-30T01:40:25.493Z,4.12
2023-03-30T01:43:21.123Z,2.88
2023-03-30T01:44:34.465Z,3.38
2023-03-30T01:45:52.231Z,3.23
2023-03-30T01:47:24.193Z,3.12
2023-03-30T01:48:45.502Z,3.05
2023-03-30T01:51:26.638Z,3.17
2023-03-30T01:52:41.612Z,3.15
2023-03-30T01:55:20.998Z,3.15
2023-03-30T01:58:11.826Z,2.68
2023-03-30T02:00:50.905Z,2.75
2023-03-30T02:02:04.835Z,2.80
2023-03-30T02:04:42.696Z,2.40
2023-03-30T02:07:15.036Z,2.40
2023-03-30T02:09:46.298Z,3.18
2023-03-30T02:12:14.782Z,2.60
2023-03-30T02:13:28.722Z,2.80
2023-03-30T02:16:03.077Z,2.47
2023-03-30T02:17:23.115Z,2.58
2023-03-30T02:19:49.224Z,2.82
2023-03-30T02:22:18.237Z,2.92
2023-03-30T02:24:52.172Z,2.70
2023-03-30T02:27:17.473Z,2.50
2023-03-30T02:28:27.201Z,2.43
2023-03-30T02:30:56.312Z,2.43
2023-03-30T02:33:38.882Z,2.03
2023-03-30T02:36:16.527Z,2.35
2023-03-30T02:39:16.520Z,2.50
2023-03-30T02:42:08.018Z,2.55
2023-03-30T02:45:25.496Z,2.48
2023-03-30T02:48:38.505Z,3.13
2023-03-30T02:51:35.127Z,2.70
2023-03-30T02:53:36.151Z,2.85
2023-03-30T02:57:47.232Z,3.23
2023-03-30T03:01:29.309Z,3.00
2023-03-30T03:04:04.601Z,3.30
2023-03-30T03:06:33.163Z,3.03
2023-03-30T03:09:00.832Z,3.33
2023-03-30T03:11:26.754Z,3.40
2023-03-30T03:13:52.045Z,3.08
2023-03-30T03:16:17.414Z,3.32
2023-03-30T03:18:50.419Z,3.60
2023-03-30T03:20:01.349Z,3.48
2023-03-30T03:22:31.057Z,3.53
2023-03-30T03:24:57.571Z,2.60
2023-03-30T03:26:50.210Z,3.20
2023-03-30T03:28:00.863Z,3.23
2023-03-30T03:30:28.516Z,2.87
2023-03-30T03:31:40.035Z,3.48
2023-03-30T03:34:07.276Z,2.92
2023-03-30T03:37:30.375Z,2.87
2023-03-30T03:39:55.278Z,2.75
2023-03-30T03:42:21.732Z,3.12
2023-03-30T03:45:13.193Z,3.10
2023-03-30T03:47:55.734Z,3.62
2023-03-30T03:50:24.313Z,3.15
2023-03-30T03:51:36.445Z,2.77
2023-03-30T03:52:47.513Z,2.70
2023-03-30T03:53:58.126Z,3.35
2023-03-30T03:55:09.362Z,3.08
2023-03-30T03:57:36.624Z,3.68
2023-03-30T03:58:46.014Z,3.75
2023-03-30T03:59:57.684Z,4.23
2023-03-30T04:02:24.135Z,3.14
2023-03-30T04:04:51.982Z,3.47
2023-03-30T04:06:02.553Z,3.58
2023-03-30T04:07:12.445Z,3.65
2023-03-30T04:09:37.698Z,4.00
2023-03-30T04:11:06.046Z,4.08
2023-03-30T04:13:32.846Z,3.52
2023-03-30T04:16:09.461Z,3.55
2023-03-30T04:18:49.406Z,3.34
2023-03-30T04:22:19.311Z,3.35
2023-03-30T04:25:06.130Z,2.78
2023-03-30T04:26:35.334Z,6.63
2023-03-30T04:29:58.379Z,3.28
2023-03-30T04:32:39.323Z,3.20
2023-03-30T04:35:23.747Z,2.90
2023-03-30T04:36:52.105Z,2.60
2023-03-30T04:38:14.518Z,2.70
2023-03-30T04:40:45.643Z,2.90
2023-03-30T04:43:12.899Z,3.60
2023-03-30T04:45:42.675Z,2.98
2023-03-30T04:48:26.260Z,3.78
2023-03-30T04:50:21.561Z,3.48
2023-03-30T04:51:49.074Z,3.63
2023-03-30T04:55:31.715Z,2.82
2023-03-30T04:58:02.036Z,3.43
2023-03-30T04:59:57.533Z,2.92
2023-03-30T05:02:41.483Z,3.57
2023-03-30T05:06:04.653Z,3.35
2023-03-30T05:09:28.751Z,3.10
2023-03-30T05:12:16.225Z,3.53
2023-03-30T05:14:52.871Z,3.20
2023-03-30T05:16:57.596Z,2.93
2023-03-30T05:18:09.402Z,2.67
2023-03-30T05:19:37.542Z,3.13
2023-03-30T05:20:49.786Z,3.00
2023-03-30T05:24:05.283Z,3.70
2023-03-30T05:26:49.305Z,7.55
2023-03-30T05:30:04.628Z,4.60
2023-03-30T05:31:24.927Z,3.87
2023-03-30T05:34:33.480Z,3.67
2023-03-30T05:37:02.844Z,2.80
2023-03-30T05:39:33.528Z,4.58
2023-03-30T05:42:19.902Z,3.83
2023-03-30T05:45:38.054Z,3.45
2023-03-30T05:48:10.983Z,3.56
2023-03-30T05:49:36.549Z,3.58
2023-03-30T05:52:04.459Z,4.50
2023-03-30T05:55:30.730Z,5.60
2023-03-30T05:58:08.863Z,5.20
2023-03-30T06:00:42.188Z,5.57
2023-03-30T06:03:12.394Z,6.50
2023-03-30T06:05:41.313Z,6.43
2023-03-30T06:08:09.322Z,6.93
2023-03-30T06:10:34.973Z,7.10
2023-03-30T06:11:44.166Z,8.05
2023-03-30T06:12:58.492Z,5.78
2023-03-30T06:14:12.553Z,4.85
2023-03-30T06:16:39.729Z,4.95
2023-03-30T06:19:07.672Z,4.17
2023-03-30T06:21:33.483Z,5.25
2023-03-30T06:24:47.711Z,5.02
2023-03-30T06:27:33.111Z,4.75
2023-03-30T06:30:00.373Z,6.65
2023-03-30T06:32:26.678Z,4.97
2023-03-30T06:35:36.981Z,4.57
2023-03-30T06:38:03.012Z,4.75
2023-03-30T06:39:13.466Z,4.97
2023-03-30T06:41:38.636Z,5.50
2023-03-30T06:44:05.252Z,5.93
2023-03-30T06:45:23.661Z,4.77
2023-03-30T06:47:47.917Z,3.27
2023-03-30T06:50:13.006Z,2.07
2023-03-30T06:52:57.440Z,2.95
2023-03-30T06:54:06.989Z,4.00
2023-03-30T06:56:31.322Z,2.87
2023-03-30T06:59:00.301Z,4.60
2023-03-30T07:01:35.299Z,4.37
2023-03-30T07:04:10.687Z,3.28
2023-03-30T07:05:24.373Z,2.18
2023-03-30T07:06:38.434Z,1.50
2023-03-30T07:07:47.764Z,1.50
2023-03-30T07:10:13.082Z,2.33
2023-03-30T07:12:38.200Z,2.10
2023-03-30T07:15:07.434Z,2.40
2023-03-30T07:17:34.035Z,2.22
2023-03-30T07:19:58.176Z,2.75
2023-03-30T07:22:23.316Z,3.12
2023-03-30T07:23:32.654Z,2.82
2023-03-30T07:25:56.783Z,2.30
2023-03-30T07:28:24.018Z,2.68
2023-03-30T07:29:33.108Z,2.30
2023-03-30T07:31:57.727Z,2.65
2023-03-30T07:34:24.498Z,2.83
2023-03-30T07:35:37.183Z,2.60
2023-03-30T07:36:48.998Z,2.63
2023-03-30T07:39:13.877Z,2.65
2023-03-30T07:41:40.146Z,2.70
2023-03-30T07:44:10.560Z,1.97
2023-03-30T07:46:35.646Z,1.85
2023-03-30T07:49:01.130Z,1.62
2023-03-30T07:51:29.033Z,1.70
2023-03-30T07:54:37.786Z,1.42
2023-03-30T07:57:28.665Z,1.55
2023-03-30T07:59:55.604Z,1.48
2023-03-30T08:02:26.477Z,1.77
2023-03-30T08:04:53.960Z,2.05
2023-03-30T08:07:31.995Z,1.50
2023-03-30T08:09:58.614Z,2.42
2023-03-30T08:11:11.495Z,2.90
2023-03-30T08:12:22.590Z,2.55
2023-03-30T08:14:48.728Z,2.37
2023-03-30T08:17:14.562Z,2.62
2023-03-30T08:18:23.789Z,2.25
2023-03-30T08:19:32.864Z,2.18
2023-03-30T08:20:42.822Z,1.40
2023-03-30T08:23:10.177Z,1.80
2023-03-30T08:24:20.250Z,1.70
2023-03-30T08:26:46.023Z,1.47
2023-03-30T08:29:13.430Z,2.28
2023-03-30T08:31:38.384Z,2.98
2023-03-30T08:34:04.018Z,3.83
2023-03-30T08:36:48.396Z,3.27
2023-03-30T08:39:13.249Z,2.70
2023-03-30T08:42:02.407Z,1.70
2023-03-30T08:44:37.348Z,2.85
2023-03-30T08:47:09.480Z,1.62
2023-03-30T08:49:46.558Z,3.38
2023-03-30T08:52:22.001Z,3.06
2023-03-30T08:53:33.626Z,3.62
2023-03-30T08:54:42.819Z,4.02
2023-03-30T08:59:21.227Z,2.47
2023-03-30T09:03:43.199Z,1.80
2023-03-30T09:06:23.925Z,2.53
2023-03-30T09:09:02.591Z,2.02
2023-03-30T09:10:14.815Z,2.05
2023-03-30T09:12:58.764Z,2.08
2023-03-30T09:16:56.616Z,2.98
2023-03-30T09:18:25.356Z,3.00
2023-03-30T09:21:02.625Z,3.80
2023-03-30T09:23:31.697Z,2.47
2023-03-30T09:26:16.383Z,2.20
2023-03-30T09:29:05.133Z,1.47
2023-03-30T09:30:21.333Z,2.48
2023-03-30T09:31:34.595Z,2.88
2023-03-30T09:34:10.734Z,2.47
2023-03-30T09:37:01.940Z,1.48
2023-03-30T09:38:13.754Z,1.80
2023-03-30T09:40:51.223Z,1.72
2023-03-30T09:42:20.836Z,1.70
2023-03-30T09:43:45.725Z,1.67
2023-03-30T09:46:31.807Z,1.53
2023-03-30T09:49:02.836Z,1.70
2023-03-30T09:51:42.703Z,2.13
2023-03-30T09:53:06.257Z,2.00
2023-03-30T09:55:51.651Z,2.95
2023-03-30T09:57:01.279Z,2.32
2023-03-30T09:58:18.859Z,1.58
2023-03-30T10:02:21.135Z,1.87
2023-03-30T10:03:31.360Z,1.98
2023-03-30T10:06:20.298Z,2.75
2023-03-30T10:08:55.450Z,2.57
2023-03-30T10:10:25.824Z,3.28
2023-03-30T10:14:34.402Z,2.67
2023-03-30T10:17:06.577Z,2.33
2023-03-30T10:19:45.301Z,1.78
2023-03-30T10:22:17.676Z,1.85
2023-03-30T10:23:34.092Z,1.65
2023-03-30T10:26:18.107Z,1.80
2023-03-30T10:29:00.395Z,1.95
2023-03-30T10:31:32.697Z,1.88
2023-03-30T10:34:04.657Z,3.23
2023-03-30T10:36:36.960Z,1.82
2023-03-30T10:37:47.696Z,1.77
2023-03-30T10:41:48.863Z,1.65
2023-03-30T10:44:21.582Z,1.95
2023-03-30T10:47:20.483Z,1.63
2023-03-30T10:50:29.066Z,1.97
2023-03-30T10:52:00.175Z,1.65
2023-03-30T10:54:57.138Z,2.00
2023-03-30T10:58:07.234Z,1.53
2023-03-30T10:59:44.352Z,2.00
2023-03-30T11:03:13.432Z,1.90
2023-03-30T11:08:58.773Z,2.02
2023-03-30T11:10:20.912Z,2.00
2023-03-30T11:13:06.913Z,2.37
2023-03-30T11:15:57.221Z,1.47
2023-03-30T11:19:03.890Z,2.88
2023-03-30T11:21:59.969Z,4.98
2023-03-30T11:24:41.441Z,1.95
2023-03-30T11:27:29.702Z,1.78
2023-03-30T11:30:21.003Z,1.63
2023-03-30T11:33:28.335Z,1.53
2023-03-30T11:36:10.745Z,1.48
2023-03-30T11:39:13.672Z,1.87
2023-03-30T11:41:42.428Z,2.92
2023-03-30T11:44:10.085Z,2.55
2023-03-30T11:47:49.212Z,2.25
2023-03-30T11:50:49.141Z,2.45
2023-03-30T11:53:58.376Z,1.27
2023-03-30T11:55:23.536Z,1.65
2023-03-30T11:58:21.256Z,2.12
2023-03-30T12:01:35.550Z,1.90
2023-03-30T12:05:56.760Z,1.50
2023-03-30T12:08:44.449Z,2.20
2023-03-30T12:11:43.819Z,2.95
2023-03-30T12:12:55.446Z,2.05
2023-03-30T12:15:56.515Z,2.25
2023-03-30T12:18:50.228Z,1.85
2023-03-30T12:21:33.520Z,1.75
2023-03-30T12:24:28.765Z,3.23
2023-03-30T12:27:08.517Z,3.37
2023-03-30T12:32:01.654Z,1.37
2023-03-30T12:34:37.393Z,1.65
2023-03-30T12:37:25.682Z,1.88
2023-03-30T12:38:46.211Z,2.18
2023-03-30T12:41:18.740Z,1.65
2023-03-30T12:44:06.196Z,1.72
2023-03-30T12:48:31.533Z,1.22
2023-03-30T12:52:57.352Z,1.87
2023-03-30T12:54:26.172Z,2.00
2023-03-30T12:57:10.022Z,1.60
2023-03-30T12:58:46.137Z,1.50
2023-03-30T13:00:17.369Z,1.30
2023-03-30T13:03:10.789Z,2.37
2023-03-30T13:04:24.137Z,1.58
2023-03-30T13:05:40.402Z,2.53
2023-03-30T13:06:59.063Z,2.08
2023-03-30T13:09:31.340Z,3.73
2023-03-30T13:10:43.749Z,2.00
2023-03-30T13:14:45.725Z,2.43
2023-03-30T13:17:20.451Z,2.28
2023-03-30T13:18:35.282Z,2.00
2023-03-30T13:22:30.480Z,2.48
2023-03-30T13:23:40.286Z,1.88
2023-03-30T13:26:34.697Z,2.00
2023-03-30T13:29:08.902Z,2.22
2023-03-30T13:30:19.838Z,2.02
2023-03-30T13:34:51.474Z,1.72
2023-03-30T13:37:36.829Z,2.40
2023-03-30T13:40:38.693Z,4.33
2023-03-30T13:43:09.045Z,2.35
2023-03-30T13:46:20.441Z,1.10
2023-03-30T13:49:27.757Z,1.05
2023-03-30T13:50:38.106Z,1.40
2023-03-30T13:53:10.712Z,1.63
2023-03-30T13:55:42.636Z,1.60
2023-03-30T13:58:32.664Z,1.53
2023-03-30T14:01:03.293Z,1.48
2023-03-30T14:02:17.770Z,3.25
2023-03-30T14:06:45.808Z,1.50
2023-03-30T14:09:16.041Z,1.63
2023-03-30T14:11:46.162Z,1.75
2023-03-30T14:14:23.456Z,1.60
2023-03-30T14:16:51.890Z,1.55
2023-03-30T14:19:26.302Z,1.80
2023-03-30T14:22:17.718Z,1.95
2023-03-30T14:25:04.493Z,2.05
2023-03-30T14:27:41.447Z,2.00
2023-03-30T14:30:24.960Z,1.90
2023-03-30T14:31:42.193Z,1.88
2023-03-30T14:34:32.593Z,1.92
2023-03-30T14:37:10.528Z,2.93
2023-03-30T14:39:43.847Z,3.37
2023-03-30T14:43:41.354Z,2.45
2023-03-30T14:46:11.937Z,1.75
2023-03-30T14:48:43.726Z,1.82
2023-03-30T14:51:29.068Z,2.33
2023-03-30T14:52:45.010Z,2.03
2023-03-30T14:55:18.846Z,3.20
2023-03-30T14:57:45.217Z,3.82
2023-03-30T14:58:57.015Z,3.70
2023-03-30T15:00:21.576Z,2.58
2023-03-30T15:02:53.832Z,3.42
2023-03-30T15:05:32.044Z,2.85
2023-03-30T15:07:59.086Z,2.38
2023-03-30T15:10:35.887Z,2.10
2023-03-30T15:13:07.037Z,2.15
2023-03-30T15:15:35.446Z,3.87
2023-03-30T15:18:05.155Z,4.88
2023-03-30T15:19:21.468Z,6.13
2023-03-30T15:21:51.338Z,2.82
2023-03-30T15:23:00.933Z,25.58
2023-03-30T15:24:13.822Z,3.42
2023-03-30T15:25:27.173Z,2.67
2023-03-30T15:26:39.975Z,2.57
2023-03-30T15:29:13.955Z,2.30
2023-03-30T15:30:43.213Z,1.98
2023-03-30T15:33:36.494Z,1.50
2023-03-30T15:35:18.294Z,1.90
2023-03-30T15:39:27.086Z,2.43
2023-03-30T15:42:04.871Z,2.02
2023-03-30T15:43:17.138Z,2.48
2023-03-30T15:44:26.984Z,2.25
2023-03-30T15:45:36.811Z,2.93
2023-03-30T15:46:48.686Z,2.25
2023-03-30T15:49:17.389Z,2.30
2023-03-30T15:50:26.617Z,2.72
2023-03-30T15:54:39.318Z,4.27
2023-03-30T15:57:14.450Z,3.02
2023-03-30T15:58:26.437Z,2.82
2023-03-30T16:00:57.004Z,3.95
2023-03-30T16:02:32.695Z,6.07
2023-03-30T16:03:57.743Z,7.80
2023-03-30T16:06:27.108Z,5.02
2023-03-30T16:08:54.027Z,4.35
2023-03-30T16:11:21.534Z,3.80
2023-03-30T16:13:48.505Z,4.57
2023-03-30T16:16:15.119Z,6.97
2023-03-30T16:18:42.474Z,4.48
2023-03-30T16:21:09.823Z,3.42
2023-03-30T16:23:34.170Z,3.65
2023-03-30T16:25:58.763Z,3.82
2023-03-30T16:28:25.785Z,5.25
2023-03-30T16:29:34.342Z,4.90
2023-03-30T16:30:47.267Z,6.05
2023-03-30T16:33:11.420Z,6.98
2023-03-30T16:35:38.774Z,6.68
2023-03-30T16:36:49.924Z,8.07
2023-03-30T16:40:43.614Z,9.68
2023-03-30T16:41:53.746Z,9.23
2023-03-30T16:43:04.115Z,8.10
2023-03-30T16:45:28.501Z,35.15
2023-03-30T16:46:37.481Z,15.18
2023-03-30T16:47:48.746Z,10.15
2023-03-30T16:50:25.523Z,7.92
2023-03-30T16:52:50.898Z,7.48
2023-03-30T16:55:15.587Z,8.58
2023-03-30T16:56:26.528Z,8.33
2023-03-30T16:57:36.094Z,9.63
2023-03-30T16:58:46.092Z,10.88
2023-03-30T17:01:13.573Z,16.05
2023-03-30T17:03:37.112Z,18.18
2023-03-30T17:06:00.768Z,32.13
2023-03-30T17:08:28.650Z,11.35
2023-03-30T17:10:55.860Z,8.92
2023-03-30T17:13:21.305Z,7.83
2023-03-30T17:15:45.947Z,6.20
2023-03-30T17:18:14.068Z,5.52
2023-03-30T17:19:26.179Z,7.02
2023-03-30T17:21:57.278Z,4.90
2023-03-30T17:23:08.566Z,5.55
2023-03-30T17:25:32.697Z,4.92
2023-03-30T17:26:42.239Z,5.08
2023-03-30T17:29:07.077Z,5.27
2023-03-30T17:31:35.126Z,4.90
2023-03-30T17:32:45.369Z,4.93
2023-03-30T17:35:10.185Z,4.80
2023-03-30T17:37:38.973Z,4.55
2023-03-30T17:40:13.262Z,4.57
2023-03-30T17:42:37.248Z,4.50
2023-03-30T17:45:05.936Z,30.73
2023-03-30T17:47:32.893Z,6.80
2023-03-30T17:49:59.480Z,8.78
2023-03-30T17:51:09.556Z,7.10
2023-03-30T17:53:33.498Z,6.25
2023-03-30T17:55:57.725Z,5.75
2023-03-30T17:57:09.411Z,4.58
2023-03-30T17:58:29.669Z,4.47
2023-03-30T17:59:38.359Z,4.85
2023-03-30T18:02:03.372Z,4.78
2023-03-30T18:04:28.502Z,4.55
2023-03-30T18:05:38.288Z,4.97
2023-03-30T18:08:05.554Z,4.73
2023-03-30T18:10:36.652Z,4.33
2023-03-30T18:11:46.451Z,4.87
2023-03-30T18:14:17.987Z,4.60
2023-03-30T18:16:44.025Z,4.60
2023-03-30T18:19:12.184Z,4.80
2023-03-30T18:21:45.800Z,4.33
2023-03-30T18:22:55.040Z,4.72
2023-03-30T18:25:31.485Z,13.38
2023-03-30T18:27:49.774Z,11.88
2023-03-30T18:30:29.174Z,10.45
2023-03-30T18:32:57.259Z,11.20
2023-03-30T18:35:26.557Z,11.75
2023-03-30T18:36:36.328Z,10.90
2023-03-30T18:39:02.049Z,10.73
2023-03-30T18:41:39.989Z,9.85
2023-03-30T18:44:06.196Z,9.92
2023-03-30T18:46:42.010Z,10.26
2023-03-30T18:47:51.325Z,9.88
2023-03-30T18:49:01.230Z,8.60
2023-03-30T18:50:20.657Z,11.23
2023-03-30T18:53:07.946Z,15.12
2023-03-30T18:55:40.066Z,21.92
2023-03-30T18:56:49.382Z,24.55
2023-03-30T18:59:14.366Z,26.00
2023-03-30T19:01:47.649Z,25.27
2023-03-30T19:04:13.154Z,32.07
2023-03-30T19:05:24.521Z,32.08
2023-03-30T19:06:35.726Z,37.08
2023-03-30T19:07:45.659Z,35.38
2023-03-30T19:08:55.919Z,40.43
2023-03-30T19:11:25.542Z,44.80
2023-03-30T19:13:51.008Z,39.70
2023-03-30T19:16:16.306Z,37.40
2023-03-30T19:17:25.643Z,32.68
2023-03-30T19:19:49.900Z,23.30
2023-03-30T19:22:33.484Z,20.55
2023-03-30T19:24:57.716Z,20.33
2023-03-30T19:27:23.559Z,12.25
2023-03-30T19:29:47.955Z,17.08
2023-03-30T19:31:06.487Z,16.20
2023-03-30T19:33:31.232Z,19.77
2023-03-30T19:35:56.682Z,24.00
2023-03-30T19:38:22.600Z,15.93
2023-03-30T19:40:47.502Z,20.42
2023-03-30T19:43:11.501Z,14.17
2023-03-30T19:45:39.986Z,14.90
2023-03-30T19:48:04.881Z,12.80
2023-03-30T19:50:30.458Z,21.00
2023-03-30T19:51:40.124Z,17.07
2023-03-30T19:54:08.691Z,20.47
2023-03-30T19:56:33.662Z,29.27
2023-03-30T19:58:58.343Z,29.52
2023-03-30T20:01:26.844Z,28.12
2023-03-30T20:03:51.970Z,27.75
2023-03-30T20:05:02.994Z,29.65
2023-03-30T20:07:27.474Z,23.35
2023-03-30T20:09:51.257Z,32.65
2023-03-30T20:12:15.516Z,34.95
2023-03-30T20:14:41.474Z,34.25
2023-03-30T20:17:10.836Z,31.60
2023-03-30T20:19:38.443Z,134.90
2023-03-30T20:22:03.422Z,42.62
2023-03-30T20:24:27.192Z,40.75
2023-03-30T20:26:52.585Z,42.78
2023-03-30T20:29:17.508Z,42.50
2023-03-30T20:31:43.399Z,38.92
2023-03-30T20:34:10.783Z,38.73
2023-03-30T20:36:38.805Z,39.12
2023-03-30T20:39:05.133Z,31.60
2023-03-30T20:41:32.119Z,24.93
2023-03-30T20:44:00.034Z,32.10
2023-03-30T20:46:31.635Z,34.05
2023-03-30T20:48:59.350Z,37.57
2023-03-30T20:51:24.570Z,32.57
2023-03-30T20:53:50.871Z,36.28
2023-03-30T20:56:16.562Z,39.03
2023-03-30T20:58:41.205Z,37.40
2023-03-30T21:01:14.740Z,40.03
2023-03-30T21:03:41.654Z,84.73
2023-03-30T21:06:08.812Z,35.90
2023-03-30T21:08:33.624Z,30.28
2023-03-30T21:11:00.229Z,24.48
2023-03-30T21:14:35.979Z,19.65
2023-03-30T21:17:07.468Z,16.25
2023-03-30T21:18:17.306Z,13.02
2023-03-30T21:20:41.241Z,9.98
2023-03-30T21:21:51.019Z,9.02
2023-03-30T21:24:16.892Z,7.78
2023-03-30T21:25:25.921Z,8.05
2023-03-30T21:27:52.273Z,9.37
2023-03-30T21:30:16.727Z,12.70
2023-03-30T21:32:41.028Z,8.23
2023-03-30T21:35:08.935Z,9.20
2023-03-30T21:36:18.722Z,9.75
2023-03-30T21:37:27.978Z,9.77
2023-03-30T21:39:51.847Z,14.02
2023-03-30T21:42:20.792Z,19.25
2023-03-30T21:44:48.388Z,22.70
2023-03-30T21:46:01.909Z,31.92
2023-03-30T21:48:30.659Z,31.47
2023-03-30T21:51:07.573Z,29.52
2023-03-30T21:52:17.328Z,27.63
2023-03-30T21:53:28.280Z,29.27
2023-03-30T21:54:37.247Z,29.68
2023-03-30T21:55:48.458Z,30.47
2023-03-30T21:58:12.800Z,31.68
2023-03-30T22:00:39.059Z,40.75
2023-03-30T22:03:04.274Z,41.22
2023-03-30T22:05:28.328Z,39.33
2023-03-30T22:08:14.238Z,37.58
2023-03-30T22:10:38.897Z,37.05
2023-03-30T22:13:03.319Z,35.30
2023-03-30T22:16:36.932Z,35.07
2023-03-30T22:17:46.403Z,34.75
2023-03-30T22:20:12.567Z,37.70
2023-03-30T22:22:41.550Z,38.02
2023-03-30T22:25:09.592Z,39.10
2023-03-30T22:27:35.481Z,43.78
2023-03-30T22:30:00.546Z,43.00
2023-03-30T22:32:35.066Z,49.73
2023-03-30T22:35:02.414Z,51.23
2023-03-30T22:37:33.612Z,65.73
2023-03-30T22:39:59.450Z,58.48
2023-03-30T22:42:24.574Z,64.30
2023-03-30T22:43:33.825Z,54.77
2023-03-30T22:45:59.522Z,50.00
2023-03-30T22:47:09.429Z,47.62
2023-03-30T22:49:33.940Z,44.75
2023-03-30T22:50:43.689Z,39.87
2023-03-30T22:53:09.444Z,41.55
2023-03-30T22:55:34.785Z,37.78
2023-03-30T22:58:00.906Z,36.57
2023-03-30T23:00:26.135Z,35.47
2023-03-30T23:02:52.879Z,34.98
2023-03-30T23:05:20.785Z,34.63
2023-03-30T23:07:49.126Z,34.04
2023-03-30T23:10:17.988Z,33.67
2023-03-30T23:12:46.361Z,32.17
2023-03-30T23:15:14.348Z,33.20
2023-03-30T23:17:39.712Z,32.78
2023-03-30T23:20:09.843Z,35.98
2023-03-30T23:22:37.648Z,37.32
2023-03-30T23:25:03.046Z,38.45
2023-03-30T23:27:27.020Z,33.77
2023-03-30T23:28:39.410Z,32.47
2023-03-30T23:31:13.154Z,30.65
2023-03-30T23:32:21.885Z,28.65
2023-03-30T23:34:46.680Z,30.15
2023-03-30T23:37:12.745Z,28.53
2023-03-30T23:38:21.872Z,27.75
2023-03-30T23:40:49.382Z,25.75
2023-03-30T23:41:58.651Z,25.83
2023-03-30T23:44:24.866Z,24.22
2023-03-30T23:46:50.285Z,22.57
2023-03-30T23:49:16.555Z,20.67
2023-03-30T23:51:41.569Z,18.83
2023-03-30T23:54:06.578Z,18.60
2023-03-30T23:56:36.512Z,17.00
2023-03-30T23:59:01.142Z,17.75
